sensor_id;sensor_type;location;lat;lon;timestamp;pressure;altitude;pressure_sealevel;temperature;humidity
76044;BME280;64740;34.694;33.088;2023-11-21T06:46:29;1038.9;;;20.9;37.3
76044;BME280;64740;34.694;33.088;2023-11-21T06:51:51;1042;;;21.8;41.6
76044;BME280;64740;34.694;33.088;2023-11-21T06:56:49;1042;;;21.9;41.3
76044;BME280;64740;34.694;33.088;2023-11-21T07:01:35;1042.1;;;22;41.1
76044;BME280;64740;34.694;33.088;2023-11-21T07:06:33;1042.1;;;22.2;41.2
76044;BME280;64740;34.694;33.088;2023-11-21T07:11:25;1042.2;;;22.3;40.7
76044;BME280;64740;34.694;33.088;2023-11-21T07:16:15;1042.2;;;22.5;40.5
76044;BME280;64740;34.694;33.088;2023-11-21T07:21:51;1042.3;;;22.6;40.2
76044;BME280;64740;34.694;33.088;2023-11-21T07:26:17;1042.3;;;22.6;39.9
76044;BME280;64740;34.694;33.088;2023-11-21T07:31:51;1042.4;;;22.7;39.5
76044;BME280;64740;34.694;33.088;2023-11-21T07:36:31;1042.4;;;22.8;39.2
76044;BME280;64740;34.694;33.088;2023-11-21T07:41:51;1042.4;;;22.9;39.2
76044;BME280;64740;34.694;33.088;2023-11-21T07:46:39;1042.4;;;23;38.3
76044;BME280;64740;34.694;33.088;2023-11-21T07:51:51;1042.5;;;23.1;38
76044;BME280;64740;34.694;33.088;2023-11-21T07:56:49;1042.5;;;23.2;37.4
76044;BME280;64740;34.694;33.088;2023-11-21T08:01:25;1042.5;;;23.3;37.4
76044;BME280;64740;34.694;33.088;2023-11-21T08:06:23;1042.5;;;23.4;37.1
76044;BME280;64740;34.694;33.088;2023-11-21T08:11:29;1042.5;;;23.4;36.9
76044;BME280;64740;34.694;33.088;2023-11-21T08:16:33;1042.5;;;23.5;37
76044;BME280;64740;34.694;33.088;2023-11-21T08:21:41;1042.4;;;23.5;36.6
76044;BME280;64740;34.694;33.088;2023-11-21T08:26:31;1042.4;;;23.6;36.2
76044;BME280;64740;34.694;33.088;2023-11-21T08:31:51;1042.4;;;23.6;36.3
76044;BME280;64740;34.694;33.088;2023-11-21T08:36:40;1042.3;;;23.6;36.4
76044;BME280;64740;34.694;33.088;2023-11-21T08:41:49;1042.3;;;23.7;36.3
76044;BME280;64740;34.694;33.088;2023-11-21T08:46:49;1042.3;;;23.7;35.6
76044;BME280;64740;34.694;33.088;2023-11-21T08:51:23;1042.3;;;23.7;35.5
76044;BME280;64740;34.694;33.088;2023-11-21T08:56:33;1042.2;;;23.8;35.5
76044;BME280;64740;34.694;33.088;2023-11-21T09:01:15;1042.2;;;23.9;35.8
76044;BME280;64740;34.694;33.088;2023-11-21T09:06:15;1042.1;;;23.9;35.9
76044;BME280;64740;34.694;33.088;2023-11-21T09:11:47;1042;;;24;35.4
76044;BME280;64740;34.694;33.088;2023-11-21T09:16:27;1042;;;24.1;35.5
76044;BME280;64740;34.694;33.088;2023-11-21T09:21:51;1042;;;24.1;35.6
76044;BME280;64740;34.694;33.088;2023-11-21T09:26:41;1042;;;24.2;35.4
76044;BME280;64740;34.694;33.088;2023-11-21T09:31:49;1042;;;24.2;35.2
76044;BME280;64740;34.694;33.088;2023-11-21T09:36:49;1042;;;24.2;35
76044;BME280;64740;34.694;33.088;2023-11-21T09:41:17;1041.9;;;24.3;35
76044;BME280;64740;34.694;33.088;2023-11-21T09:46:37;1041.9;;;24.3;34.5
76044;BME280;64740;34.694;33.088;2023-11-21T09:51:39;1041.9;;;24.3;34.5
76044;BME280;64740;34.694;33.088;2023-11-21T09:56:15;1041.8;;;24.3;34.7
76044;BME280;64740;34.694;33.088;2023-11-21T10:01:41;1041.7;;;24.3;34.6
76044;BME280;64740;34.694;33.088;2023-11-21T10:06:29;1041.7;;;24.4;34.6
76044;BME280;64740;34.694;33.088;2023-11-21T10:11:53;1041.6;;;24.5;34.3
76044;BME280;64740;34.694;33.088;2023-11-21T10:16:43;1041.5;;;24.7;34.4
76044;BME280;64740;34.694;33.088;2023-11-21T10:21:53;1041.5;;;24.8;34.5
76044;BME280;64740;34.694;33.088;2023-11-21T10:26:53;1041.4;;;24.9;34.5
76044;BME280;64740;34.694;33.088;2023-11-21T10:31:26;1041.4;;;25.1;34.1
76044;BME280;64740;34.694;33.088;2023-11-21T10:36:53;1041.4;;;25.2;34.1
76044;BME280;64740;34.694;33.088;2023-11-21T10:41:15;1041.4;;;25.4;33.8
76044;BME280;64740;34.694;33.088;2023-11-21T10:46:19;1041.4;;;25.5;33.5
76044;BME280;64740;34.694;33.088;2023-11-21T10:51:43;1041.4;;;25.7;33.6
76044;BME280;64740;34.694;33.088;2023-11-21T10:56:29;1041.3;;;25.9;33.8
76044;BME280;64740;34.694;33.088;2023-11-21T11:01:51;1041.3;;;26.2;33.4
76044;BME280;64740;34.694;33.088;2023-11-21T11:06:54;1041.3;;;26.5;32.8
76044;BME280;64740;34.694;33.088;2023-11-21T11:11:51;1041.2;;;26.8;32.9
76044;BME280;64740;34.694;33.088;2023-11-21T11:16:53;1041.2;;;27;32.2
76044;BME280;64740;34.694;33.088;2023-11-21T11:21:26;1041.2;;;27.3;31.9
76044;BME280;64740;34.694;33.088;2023-11-21T11:26:39;1041.2;;;27.6;31.2
76044;BME280;64740;34.694;33.088;2023-11-21T11:31:39;1041.2;;;27.9;31
76044;BME280;64740;34.694;33.088;2023-11-21T11:36:16;1041.1;;;28.1;30.5
76044;BME280;64740;34.694;33.088;2023-11-21T11:41:37;1041;;;28.5;30.2
76044;BME280;64740;34.694;33.088;2023-11-21T11:46:39;1041.1;;;28.9;30.2
76044;BME280;64740;34.694;33.088;2023-11-21T11:51:13;1041.1;;;29.2;29.8
76044;BME280;64740;34.694;33.088;2023-11-21T11:56:41;1041.1;;;29.4;29.5
76044;BME280;64740;34.694;33.088;2023-11-21T12:01:25;1041.2;;;29.5;29.3
76044;BME280;64740;34.694;33.088;2023-11-21T12:06:52;1041.2;;;29.5;29.2
76044;BME280;64740;34.694;33.088;2023-11-21T12:11:40;1041.2;;;29.7;29
76044;BME280;64740;34.694;33.088;2023-11-21T12:16:25;1041.2;;;29.9;28.9
76044;BME280;64740;34.694;33.088;2023-11-21T12:21:43;1041.3;;;29.9;28.6
76044;BME280;64740;34.694;33.088;2023-11-21T12:26:31;1041.4;;;29.9;28.6
76044;BME280;64740;34.694;33.088;2023-11-21T12:31:51;1041.4;;;30.1;28.4
76044;BME280;64740;34.694;33.088;2023-11-21T12:36:17;1041.5;;;30.3;28.3
76044;BME280;64740;34.694;33.088;2023-11-21T12:41:27;1041.5;;;30.4;28
76044;BME280;64740;34.694;33.088;2023-11-21T12:46:42;1041.5;;;30.6;28.2
76044;BME280;64740;34.694;33.088;2023-11-21T12:51:41;1041.5;;;30.7;27.8
76044;BME280;64740;34.694;33.088;2023-11-21T12:56:51;1041.5;;;30.8;27.8
76044;BME280;64740;34.694;33.088;2023-11-21T13:01:41;1041.6;;;31;27.9
76044;BME280;64740;34.694;33.088;2023-11-21T13:06:25;1041.6;;;31.1;27.6
76044;BME280;64740;34.694;33.088;2023-11-21T13:11:15;1041.6;;;31.3;27.2
76044;BME280;64740;34.694;33.088;2023-11-21T13:16:29;1041.7;;;31.4;27.3
76044;BME280;64740;34.694;33.088;2023-11-21T13:21:49;1041.7;;;31.5;26.6
76044;BME280;64740;34.694;33.088;2023-11-21T13:26:17;1041.7;;;31.6;26.2
76044;BME280;64740;34.694;33.088;2023-11-21T13:31:21;1041.8;;;31.7;26.3
76044;BME280;64740;34.694;33.088;2023-11-21T13:36:35;1041.9;;;31.8;26.1
76044;BME280;64740;34.694;33.088;2023-11-21T13:41:39;1042;;;32.5;25.6
76044;BME280;64740;34.694;33.088;2023-11-21T13:46:53;1042;;;32.9;25.2
76044;BME280;64740;34.694;33.088;2023-11-21T13:51:31;1042;;;33.1;25.1
76044;BME280;64740;34.694;33.088;2023-11-21T13:56:15;1042.1;;;33.2;25.2
76044;BME280;64740;34.694;33.088;2023-11-21T14:01:17;1042.2;;;32.8;25
76044;BME280;64740;34.694;33.088;2023-11-21T14:06:49;1042.2;;;31.5;26
76044;BME280;64740;34.694;33.088;2023-11-21T14:11:51;1042.2;;;30.2;27.2
76044;BME280;64740;34.694;33.088;2023-11-21T14:16:31;1042.3;;;29.1;28.1
76044;BME280;64740;34.694;33.088;2023-11-21T14:21:27;1042.3;;;28.1;29
76044;BME280;64740;34.694;33.088;2023-11-21T14:26:43;1042.3;;;27.4;30.1
76044;BME280;64740;34.694;33.088;2023-11-21T14:31:39;1042.4;;;26.7;31
76044;BME280;64740;34.694;33.088;2023-11-21T14:36:51;1042.5;;;26.3;31.7
76044;BME280;64740;34.694;33.088;2023-11-21T14:41:39;1042.5;;;25.9;32.3
76044;BME280;64740;34.694;33.088;2023-11-21T14:46:23;1042.6;;;25.5;33.4
76044;BME280;64740;34.694;33.088;2023-11-21T14:51:15;1042.7;;;25.2;33.6
76044;BME280;64740;34.694;33.088;2023-11-21T14:56:51;1042.8;;;25;34.1
76044;BME280;64740;34.694;33.088;2023-11-21T15:01:49;1042.9;;;24.8;34.4
76044;BME280;64740;34.694;33.088;2023-11-21T15:06:41;1043;;;24.6;34.9
76044;BME280;64740;34.694;33.088;2023-11-21T15:11:15;1043;;;24.5;35.1
76044;BME280;64740;34.694;33.088;2023-11-21T15:16:43;1043.1;;;24.4;35.4
76044;BME280;64740;34.694;33.088;2023-11-21T15:21:41;1043.2;;;24.3;36
76044;BME280;64740;34.694;33.088;2023-11-21T15:26:51;1043.2;;;24.1;36.4
76044;BME280;64740;34.694;33.088;2023-11-21T15:31:41;1043.1;;;24;37.1
76044;BME280;64740;34.694;33.088;2023-11-21T15:36:23;1043.2;;;23.9;37.4
76044;BME280;64740;34.694;33.088;2023-11-21T15:41:15;1043.1;;;23.7;37.8
76044;BME280;64740;34.694;33.088;2023-11-21T15:46:31;1043.2;;;23.6;38.2
76044;BME280;64740;34.694;33.088;2023-11-21T15:51:53;1043.2;;;23.4;38.6
76044;BME280;64740;34.694;33.088;2023-11-21T15:56:43;1043.2;;;23.3;38.9
76044;BME280;64740;34.694;33.088;2023-11-21T16:01:29;1043.2;;;23.3;39.2
76044;BME280;64740;34.694;33.088;2023-11-21T16:06:45;1043.3;;;23.1;39.5
76044;BME280;64740;34.694;33.088;2023-11-21T16:11:55;1043.3;;;23.1;39.7
76044;BME280;64740;34.694;33.088;2023-11-21T16:16:55;1043.3;;;23;39.9
76044;BME280;64740;34.694;33.088;2023-11-21T16:21:15;1043.4;;;22.9;40.1
76044;BME280;64740;34.694;33.088;2023-11-21T16:26:17;1043.4;;;22.8;40.2
76044;BME280;64740;34.694;33.088;2023-11-21T16:31:21;1043.5;;;22.7;40.4
76044;BME280;64740;34.694;33.088;2023-11-21T16:36:15;1043.5;;;22.7;40.6
76044;BME280;64740;34.694;33.088;2023-11-21T16:41:51;1043.5;;;22.6;40.7
76044;BME280;64740;34.694;33.088;2023-11-21T16:46:33;1043.5;;;22.5;41
76044;BME280;64740;34.694;33.088;2023-11-21T16:51:23;1043.6;;;22.5;41.2
76044;BME280;64740;34.694;33.088;2023-11-21T16:56:27;1043.6;;;22.5;41.2
76044;BME280;64740;34.694;33.088;2023-11-21T17:01:37;1043.6;;;22.4;41.3
76044;BME280;64740;34.694;33.088;2023-11-21T17:06:51;1043.7;;;22.4;41.4
76044;BME280;64740;34.694;33.088;2023-11-21T17:11:27;1043.7;;;22.3;41.5
76044;BME280;64740;34.694;33.088;2023-11-21T17:16:15;1043.7;;;22.3;41.7
76044;BME280;64740;34.694;33.088;2023-11-21T17:21:17;1043.7;;;22.2;41.8
76044;BME280;64740;34.694;33.088;2023-11-21T17:26:29;1043.8;;;22.2;41.9
76044;BME280;64740;34.694;33.088;2023-11-21T17:31:52;1043.8;;;22.1;42
76044;BME280;64740;34.694;33.088;2023-11-21T17:36:41;1043.9;;;22.1;42
76044;BME280;64740;34.694;33.088;2023-11-21T17:41:18;1043.9;;;22.1;42
76044;BME280;64740;34.694;33.088;2023-11-21T17:46:31;1043.9;;;22.1;42.1
76044;BME280;64740;34.694;33.088;2023-11-21T17:51:39;1043.8;;;22.1;42.1
76044;BME280;64740;34.694;33.088;2023-11-21T17:56:53;1043.8;;;22.1;42.2
76044;BME280;64740;34.694;33.088;2023-11-21T18:01:17;1043.8;;;22;42.2
76044;BME280;64740;34.694;33.088;2023-11-21T18:06:17;1043.8;;;22;42.4
76044;BME280;64740;34.694;33.088;2023-11-21T18:11:17;1043.8;;;21.9;42.4
76044;BME280;64740;34.694;33.088;2023-11-21T18:16:29;1043.8;;;21.9;42.4
76044;BME280;64740;34.694;33.088;2023-11-21T18:21:19;1043.8;;;21.9;42.5
76044;BME280;64740;34.694;33.088;2023-11-21T18:26:41;1043.8;;;21.9;42.5
76044;BME280;64740;34.694;33.088;2023-11-21T18:31:25;1043.9;;;21.9;42.5
76044;BME280;64740;34.694;33.088;2023-11-21T18:36:43;1043.9;;;21.9;42.6
76044;BME280;64740;34.694;33.088;2023-11-21T18:41:39;1043.9;;;21.9;42.7
76044;BME280;64740;34.694;33.088;2023-11-21T18:46:49;1043.9;;;21.8;43
76044;BME280;64740;34.694;33.088;2023-11-21T18:51:17;1044;;;21.9;42.9
76044;BME280;64740;34.694;33.088;2023-11-21T18:56:18;1044;;;21.9;42.9
76044;BME280;64740;34.694;33.088;2023-11-21T19:01:25;1044;;;21.9;43
76044;BME280;64740;34.694;33.088;2023-11-21T19:06:27;1044.1;;;21.8;43
76044;BME280;64740;34.694;33.088;2023-11-21T19:11:51;1044.1;;;21.8;43
76044;BME280;64740;34.694;33.088;2023-11-21T19:16:29;1044.1;;;21.8;43.2
76044;BME280;64740;34.694;33.088;2023-11-21T19:21:15;1044.1;;;21.8;43.1
76044;BME280;64740;34.694;33.088;2023-11-21T19:26:41;1044.1;;;21.7;43
76044;BME280;64740;34.694;33.088;2023-11-21T19:31:41;1044.1;;;21.7;43.2
76044;BME280;64740;34.694;33.088;2023-11-21T19:36:47;1044;;;21.7;43.3
76044;BME280;64740;34.694;33.088;2023-11-21T19:41:31;1044;;;21.7;43.3
76044;BME280;64740;34.694;33.088;2023-11-21T19:46:17;1044.1;;;21.7;43.4
76044;BME280;64740;34.694;33.088;2023-11-21T19:51:17;1044.2;;;21.7;43.2
76044;BME280;64740;34.694;33.088;2023-11-21T19:56:15;1044.2;;;21.6;43.4
76044;BME280;64740;34.694;33.088;2023-11-21T20:01:41;1044.2;;;21.6;43.5
76044;BME280;64740;34.694;33.088;2023-11-21T20:06:29;1044.2;;;21.6;43.5
76044;BME280;64740;34.694;33.088;2023-11-21T20:11:25;1044.3;;;21.5;43.5
76044;BME280;64740;34.694;33.088;2023-11-21T20:16:25;1044.3;;;21.5;43.7
76044;BME280;64740;34.694;33.088;2023-11-21T20:21:41;1044.3;;;21.5;43.6
76044;BME280;64740;34.694;33.088;2023-11-21T20:26:47;1044.2;;;21.5;43.8
76044;BME280;64740;34.694;33.088;2023-11-21T20:31:17;1044.2;;;21.5;43.8
76044;BME280;64740;34.694;33.088;2023-11-21T20:36:25;1044.2;;;21.5;43.8
76044;BME280;64740;34.694;33.088;2023-11-21T20:41:17;1044.2;;;21.5;43.9
76044;BME280;64740;34.694;33.088;2023-11-21T20:46:37;1044.1;;;21.5;43.9
76044;BME280;64740;34.694;33.088;2023-11-21T20:51:57;1044.1;;;21.4;44
76044;BME280;64740;34.694;33.088;2023-11-21T20:56:57;1044;;;21.4;44
76044;BME280;64740;34.694;33.088;2023-11-21T21:01:31;1044;;;21.4;44
76044;BME280;64740;34.694;33.088;2023-11-21T21:06:31;1043.9;;;21.5;44
76044;BME280;64740;34.694;33.088;2023-11-21T21:11:43;1043.9;;;21.4;43.9
76044;BME280;64740;34.694;33.088;2023-11-21T21:21:17;1043.9;;;21.4;44.1
76044;BME280;64740;34.694;33.088;2023-11-21T21:26:29;1044;;;21.4;44
76044;BME280;64740;34.694;33.088;2023-11-21T21:31:19;1044;;;21.4;44.1
76044;BME280;64740;34.694;33.088;2023-11-21T21:36:31;1044;;;21.4;44
76044;BME280;64740;34.694;33.088;2023-11-21T21:41:55;1044.1;;;21.4;44.1
76044;BME280;64740;34.694;33.088;2023-11-21T21:46:47;1044.1;;;21.4;44.1
76044;BME280;64740;34.694;33.088;2023-11-21T21:51:17;1044;;;21.4;44.1
76044;BME280;64740;34.694;33.088;2023-11-21T21:56:47;1044;;;21.4;44.1
76044;BME280;64740;34.694;33.088;2023-11-21T22:01:57;1044;;;21.4;44.2
76044;BME280;64740;34.694;33.088;2023-11-21T22:06:19;1044;;;21.4;44.2
76044;BME280;64740;34.694;33.088;2023-11-21T22:11:25;1044.1;;;21.3;44.2
76044;BME280;64740;34.694;33.088;2023-11-21T22:16:17;1044.1;;;21.4;44.3
76044;BME280;64740;34.694;33.088;2023-11-21T22:21:29;1044.1;;;21.4;44.2
76044;BME280;64740;34.694;33.088;2023-11-21T22:26:43;1044;;;21.4;44.3
76044;BME280;64740;34.694;33.088;2023-11-21T22:31:53;1044;;;21.3;44.3
76044;BME280;64740;34.694;33.088;2023-11-21T22:36:43;1044;;;21.3;44.4
76044;BME280;64740;34.694;33.088;2023-11-21T22:41:22;1044;;;21.3;44.3
76044;BME280;64740;34.694;33.088;2023-11-21T22:46:43;1044;;;21.3;44.4
76044;BME280;64740;34.694;33.088;2023-11-21T22:51:43;1044;;;21.3;44.3
76044;BME280;64740;34.694;33.088;2023-11-21T22:56:55;1044;;;21.3;44.4
76044;BME280;64740;34.694;33.088;2023-11-21T23:01:27;1044;;;21.3;44.4
76044;BME280;64740;34.694;33.088;2023-11-21T23:06:20;1044;;;21.3;44.4
76044;BME280;64740;34.694;33.088;2023-11-21T23:11:17;1044;;;21.2;44.4
76044;BME280;64740;34.694;33.088;2023-11-21T23:16:33;1043.9;;;21.1;44.5
76044;BME280;64740;34.694;33.088;2023-11-21T23:21:55;1044;;;21.1;44.5
76044;BME280;64740;34.694;33.088;2023-11-21T23:26:43;1044;;;21.1;44.6
76044;BME280;64740;34.694;33.088;2023-11-21T23:31:19;1043.9;;;21.1;44.7
76044;BME280;64740;34.694;33.088;2023-11-21T23:36:45;1043.8;;;21.2;44.7
76044;BME280;64740;34.694;33.088;2023-11-21T23:41:43;1043.8;;;21.2;44.6
76044;BME280;64740;34.694;33.088;2023-11-21T23:46:55;1043.8;;;21.2;44.6
76044;BME280;64740;34.694;33.088;2023-11-21T23:51:19;1043.7;;;21.2;44.6
76044;BME280;64740;34.694;33.088;2023-11-21T23:56:19;1043.7;;;21.1;44.6
